createdAt,value
2023-01-29T00:00:13.931Z,25.80
2023-01-29T00:03:01.903Z,25.40
2023-01-29T00:05:29.938Z,26.80
2023-01-29T00:07:57.975Z,27.10
2023-01-29T00:10:26.836Z,22.30
2023-01-29T00:12:55.242Z,24.00
2023-01-29T00:15:23.487Z,24.30
2023-01-29T00:17:51.608Z,22.80
2023-01-29T00:20:19.787Z,22.30
2023-01-29T00:22:47.993Z,22.90
2023-01-29T00:25:16.088Z,22.70
2023-01-29T00:27:44.757Z,23.20
2023-01-29T00:30:13.607Z,25.90
2023-01-29T00:32:42.037Z,25.00
2023-01-29T00:35:10.123Z,26.70
2023-01-29T00:37:38.473Z,26.10
2023-01-29T00:40:06.857Z,27.20
2023-01-29T00:42:53.264Z,25.10
2023-01-29T00:45:21.423Z,27.70
2023-01-29T00:47:49.319Z,26.60
2023-01-29T00:50:17.784Z,29.00
2023-01-29T00:52:46.089Z,29.80
2023-01-29T00:55:14.095Z,33.50
2023-01-29T00:57:42.028Z,33.20
2023-01-29T01:00:14.081Z,32.80
2023-01-29T01:03:01.346Z,32.90
2023-01-29T01:05:29.655Z,36.40
2023-01-29T01:07:58.634Z,36.80
2023-01-29T01:10:30.461Z,41.90
2023-01-29T01:13:03.798Z,34.60
2023-01-29T01:15:36.047Z,38.60
2023-01-29T01:18:04.708Z,36.80
2023-01-29T01:20:34.824Z,35.00
2023-01-29T01:23:03.241Z,40.60
2023-01-29T01:25:31.743Z,39.20
2023-01-29T01:30:27.170Z,43.70
2023-01-29T01:32:55.282Z,36.00
2023-01-29T01:35:23.198Z,36.00
2023-01-29T01:37:51.126Z,38.70
2023-01-29T01:40:21.345Z,39.40
2023-01-29T01:42:51.915Z,42.90
2023-01-29T01:45:24.875Z,42.30
2023-01-29T01:47:56.093Z,39.10
2023-01-29T01:50:31.340Z,43.20
2023-01-29T01:53:11.551Z,39.90
2023-01-29T01:55:56.142Z,42.20
2023-01-29T01:58:53.059Z,47.00
2023-01-29T02:01:30.243Z,42.90
2023-01-29T02:04:23.119Z,39.50
2023-01-29T02:07:12.475Z,37.70
2023-01-29T02:09:46.535Z,40.10
2023-01-29T02:12:16.396Z,36.90
2023-01-29T02:14:44.904Z,40.70
2023-01-29T02:17:18.859Z,39.40
2023-01-29T02:20:14.535Z,38.10
2023-01-29T02:22:56.074Z,39.60
2023-01-29T02:26:13.596Z,37.20
2023-01-29T02:29:22.575Z,40.70
2023-01-29T02:32:03.578Z,40.60
2023-01-29T02:35:10.381Z,38.30
2023-01-29T02:38:15.790Z,45.90
2023-01-29T02:40:47.155Z,42.20
2023-01-29T02:43:46.751Z,39.70
2023-01-29T02:46:40.183Z,40.70
2023-01-29T02:49:17.442Z,43.10
2023-01-29T02:51:55.608Z,43.20
2023-01-29T02:54:28.628Z,39.40
2023-01-29T02:56:59.834Z,40.70
2023-01-29T02:59:36.870Z,42.10
2023-01-29T03:02:16.663Z,38.20
2023-01-29T03:04:53.943Z,44.20
2023-01-29T03:07:42.399Z,40.70
2023-01-29T03:10:35.364Z,37.40
2023-01-29T03:13:14.767Z,31.50
2023-01-29T03:15:47.478Z,37.10
2023-01-29T03:18:22.564Z,40.60
2023-01-29T03:20:58.636Z,38.50
2023-01-29T03:23:47.917Z,36.60
2023-01-29T03:26:37.321Z,37.30
2023-01-29T03:29:25.668Z,39.10
2023-01-29T03:32:08.275Z,40.40
2023-01-29T03:34:47.950Z,39.10
2023-01-29T03:37:34.987Z,40.80
2023-01-29T03:40:05.032Z,39.70
2023-01-29T03:43:08.519Z,36.50
2023-01-29T03:45:48.369Z,44.90
2023-01-29T03:48:22.027Z,41.90
2023-01-29T03:50:57.860Z,46.30
2023-01-29T03:53:39.163Z,46.90
2023-01-29T03:56:09.241Z,42.00
2023-01-29T03:58:43.798Z,45.50
2023-01-29T04:01:24.204Z,45.40
2023-01-29T04:04:26.962Z,44.30
2023-01-29T04:07:00.307Z,42.20
2023-01-29T04:09:33.967Z,40.30
2023-01-29T04:12:11.599Z,43.10
2023-01-29T04:14:39.772Z,39.90
2023-01-29T04:17:22.901Z,43.60
2023-01-29T04:19:50.906Z,41.50
2023-01-29T04:22:25.128Z,43.60
2023-01-29T04:24:53.203Z,43.90
2023-01-29T04:27:33.314Z,41.40
2023-01-29T04:30:20.066Z,38.80
2023-01-29T04:33:03.309Z,41.10
2023-01-29T04:35:47.715Z,36.70
2023-01-29T04:38:41.435Z,41.00
2023-01-29T04:41:34.188Z,39.60
2023-01-29T04:44:11.354Z,39.80
2023-01-29T04:47:17.144Z,35.60
2023-01-29T04:50:11.267Z,37.30
2023-01-29T04:52:49.888Z,36.60
2023-01-29T04:55:21.944Z,36.90
2023-01-29T04:57:52.947Z,35.50
2023-01-29T05:00:28.838Z,37.90
2023-01-29T05:02:57.046Z,36.90
2023-01-29T05:05:25.019Z,39.30
2023-01-29T05:07:54.385Z,35.10
2023-01-29T05:10:24.253Z,38.20
2023-01-29T05:13:00.446Z,32.60
2023-01-29T05:15:35.941Z,34.20
2023-01-29T05:18:09.006Z,35.00
2023-01-29T05:20:39.705Z,37.10
2023-01-29T05:23:25.811Z,34.10
2023-01-29T05:25:54.114Z,33.00
2023-01-29T05:28:22.124Z,34.10
2023-01-29T05:30:53.428Z,29.90
2023-01-29T05:33:26.668Z,31.40
2023-01-29T05:35:55.535Z,30.80
2023-01-29T05:38:23.790Z,33.50
2023-01-29T05:40:52.025Z,28.40
2023-01-29T05:43:22.066Z,29.90
2023-01-29T05:45:58.838Z,33.10
2023-01-29T05:48:29.155Z,29.90
2023-01-29T05:51:04.341Z,31.70
2023-01-29T05:53:33.099Z,30.10
2023-01-29T05:56:02.549Z,32.80
2023-01-29T05:58:31.933Z,34.70
2023-01-29T06:01:18.381Z,35.40
2023-01-29T06:03:47.217Z,33.30
2023-01-29T06:06:16.264Z,27.70
2023-01-29T06:08:44.314Z,29.40
2023-01-29T06:11:14.720Z,32.00
2023-01-29T06:13:42.695Z,27.40
2023-01-29T06:16:12.695Z,31.60
2023-01-29T06:18:41.702Z,28.50
2023-01-29T06:21:12.197Z,28.00
2023-01-29T06:23:40.633Z,30.20
2023-01-29T06:26:11.919Z,27.80
2023-01-29T06:28:40.335Z,28.90
2023-01-29T06:31:24.373Z,30.30
2023-01-29T06:33:55.349Z,26.60
2023-01-29T06:36:23.268Z,25.80
2023-01-29T06:38:51.140Z,27.80
2023-01-29T06:41:22.774Z,27.90
2023-01-29T06:43:51.626Z,25.40
2023-01-29T06:46:19.562Z,24.80
2023-01-29T06:48:47.623Z,25.10
2023-01-29T06:51:15.521Z,27.60
2023-01-29T06:53:45.771Z,27.30
2023-01-29T06:56:14.329Z,32.00
2023-01-29T06:58:43.626Z,31.10
2023-01-29T07:01:22.304Z,24.50
2023-01-29T07:03:57.059Z,25.90
2023-01-29T07:06:31.464Z,23.20
2023-01-29T07:08:59.602Z,25.80
2023-01-29T07:11:27.483Z,26.90
2023-01-29T07:13:55.346Z,24.40
2023-01-29T07:16:23.581Z,23.80
2023-01-29T07:18:51.876Z,27.70
2023-01-29T07:21:22.082Z,25.30
2023-01-29T07:23:50.020Z,25.20
2023-01-29T07:26:17.872Z,25.20
2023-01-29T07:28:45.744Z,24.80
2023-01-29T07:31:15.037Z,37.60
2023-01-29T07:33:44.637Z,28.80
2023-01-29T07:36:13.763Z,24.20
2023-01-29T07:38:41.617Z,24.70
2023-01-29T07:41:11.805Z,26.50
2023-01-29T07:43:39.746Z,24.60
2023-01-29T07:46:07.779Z,24.60
2023-01-29T07:48:36.260Z,24.70
2023-01-29T07:51:04.284Z,24.60
2023-01-29T07:53:32.892Z,24.70
2023-01-29T07:56:00.852Z,23.50
2023-01-29T07:58:28.793Z,26.50
2023-01-29T08:00:56.737Z,23.30
2023-01-29T08:03:24.651Z,24.60
2023-01-29T08:05:52.563Z,22.10
2023-01-29T08:08:20.494Z,24.10
2023-01-29T08:10:48.351Z,23.30
2023-01-29T08:13:16.664Z,22.60
2023-01-29T08:15:45.841Z,24.90
2023-01-29T08:18:14.796Z,22.70
2023-01-29T08:20:42.752Z,21.30
2023-01-29T08:23:14.676Z,24.20
2023-01-29T08:25:42.931Z,25.10
2023-01-29T08:28:11.852Z,22.10
2023-01-29T08:30:40.329Z,21.70
2023-01-29T08:33:08.381Z,21.90
2023-01-29T08:35:36.953Z,25.70
2023-01-29T08:38:06.253Z,24.30
2023-01-29T08:40:34.869Z,21.60
2023-01-29T08:43:07.811Z,21.60
2023-01-29T08:45:42.450Z,22.90
2023-01-29T08:48:10.995Z,22.60
2023-01-29T08:50:39.156Z,23.00
2023-01-29T08:53:08.778Z,24.90
2023-01-29T08:55:41.037Z,22.70
2023-01-29T08:58:12.392Z,20.20
2023-01-29T09:00:40.289Z,23.00
2023-01-29T09:03:08.288Z,21.50
2023-01-29T09:05:37.953Z,22.00
2023-01-29T09:08:07.713Z,22.20
2023-01-29T09:10:36.146Z,21.50
2023-01-29T09:13:04.713Z,19.40
2023-01-29T09:15:32.789Z,20.80
2023-01-29T09:18:04.316Z,22.50
2023-01-29T09:20:32.471Z,21.50
2023-01-29T09:23:05.894Z,23.00
2023-01-29T09:25:33.872Z,20.50
2023-01-29T09:28:02.114Z,20.70
2023-01-29T09:30:30.129Z,26.00
2023-01-29T09:33:00.563Z,23.90
2023-01-29T09:35:28.433Z,23.10
2023-01-29T09:37:57.054Z,20.40
2023-01-29T09:40:29.469Z,21.50
2023-01-29T09:43:22.681Z,21.90
2023-01-29T09:45:59.755Z,18.60
2023-01-29T09:48:32.173Z,18.50
2023-01-29T09:51:06.276Z,19.90
2023-01-29T09:53:43.628Z,20.00
2023-01-29T09:56:28.927Z,21.70
2023-01-29T09:59:01.682Z,20.50
2023-01-29T10:01:45.511Z,21.40
2023-01-29T10:04:34.679Z,23.50
2023-01-29T10:07:19.934Z,20.60
2023-01-29T10:09:57.741Z,21.20
2023-01-29T10:12:53.949Z,21.70
2023-01-29T10:15:21.935Z,21.70
2023-01-29T10:17:50.645Z,23.10
2023-01-29T10:20:33.829Z,20.80
2023-01-29T10:23:16.717Z,20.60
2023-01-29T10:25:46.312Z,23.50
2023-01-29T10:28:20.982Z,20.20
2023-01-29T10:30:58.013Z,21.80
2023-01-29T10:33:49.238Z,21.20
2023-01-29T10:36:49.266Z,22.90
2023-01-29T10:39:20.600Z,21.70
2023-01-29T10:42:27.366Z,22.70
2023-01-29T10:45:07.501Z,25.80
2023-01-29T10:47:52.864Z,22.20
2023-01-29T10:50:26.951Z,20.20
2023-01-29T10:53:06.692Z,20.10
2023-01-29T10:56:21.916Z,19.00
2023-01-29T10:59:01.673Z,21.20
2023-01-29T11:01:29.538Z,18.00
2023-01-29T11:04:11.988Z,20.60
2023-01-29T11:06:39.947Z,18.60
2023-01-29T11:09:10.879Z,20.90
2023-01-29T11:11:48.654Z,19.90
2023-01-29T11:14:22.665Z,19.70
2023-01-29T11:16:51.320Z,21.10
2023-01-29T11:19:37.097Z,20.60
2023-01-29T11:22:05.136Z,20.80
2023-01-29T11:24:32.943Z,22.70
2023-01-29T11:27:00.778Z,21.90
2023-01-29T11:29:39.350Z,18.00
2023-01-29T11:32:19.939Z,20.90
2023-01-29T11:35:16.353Z,21.00
2023-01-29T11:37:46.931Z,18.50
2023-01-29T11:40:38.694Z,19.40
2023-01-29T11:43:20.159Z,20.90
2023-01-29T11:45:55.271Z,20.80
2023-01-29T11:48:28.911Z,19.90
2023-01-29T11:51:00.850Z,19.80
2023-01-29T11:53:45.554Z,18.70
2023-01-29T11:56:21.803Z,19.90
2023-01-29T11:58:51.732Z,20.00
2023-01-29T12:01:31.409Z,18.90
2023-01-29T12:04:00.344Z,17.10
2023-01-29T12:06:38.155Z,19.90
2023-01-29T12:09:16.832Z,21.50
2023-01-29T12:11:44.979Z,17.60
2023-01-29T12:14:34.247Z,18.80
2023-01-29T12:17:11.175Z,22.80
2023-01-29T12:19:52.904Z,19.50
2023-01-29T12:22:26.476Z,19.20
2023-01-29T12:25:00.514Z,20.10
2023-01-29T12:27:43.485Z,17.90
2023-01-29T12:30:20.330Z,16.10
2023-01-29T12:33:15.006Z,20.30
2023-01-29T12:35:48.247Z,22.50
2023-01-29T12:38:22.021Z,20.30
2023-01-29T12:43:38.815Z,20.80
2023-01-29T12:46:11.539Z,22.40
2023-01-29T12:48:43.901Z,22.00
2023-01-29T12:51:20.116Z,19.90
2023-01-29T12:54:00.465Z,20.70
2023-01-29T12:56:42.136Z,21.60
2023-01-29T12:59:29.349Z,19.40
2023-01-29T13:02:04.264Z,20.80
2023-01-29T13:04:47.036Z,20.80
2023-01-29T13:07:26.163Z,19.40
2023-01-29T13:10:05.692Z,23.90
2023-01-29T13:12:34.747Z,19.10
2023-01-29T13:15:18.091Z,20.40
2023-01-29T13:18:31.121Z,19.40
2023-01-29T13:21:01.046Z,42.40
2023-01-29T13:23:37.187Z,20.40
2023-01-29T13:26:06.051Z,21.60
2023-01-29T13:28:34.325Z,21.10
2023-01-29T13:31:11.291Z,22.30
2023-01-29T13:33:41.831Z,24.30
2023-01-29T13:36:20.079Z,20.40
2023-01-29T13:39:07.635Z,20.30
2023-01-29T13:41:42.506Z,20.40
2023-01-29T13:44:50.448Z,20.70
2023-01-29T13:47:29.495Z,21.00
2023-01-29T13:50:09.618Z,19.70
2023-01-29T13:52:44.641Z,19.70
2023-01-29T13:55:15.837Z,22.40
2023-01-29T13:57:43.849Z,18.60
2023-01-29T14:00:20.733Z,19.50
2023-01-29T14:03:08.875Z,19.20
2023-01-29T14:05:55.177Z,19.20
2023-01-29T14:08:34.950Z,18.70
2023-01-29T14:11:19.211Z,18.80
2023-01-29T14:13:52.461Z,21.50
2023-01-29T14:16:23.565Z,16.70
2023-01-29T14:19:00.730Z,18.40
2023-01-29T14:21:34.603Z,18.40
2023-01-29T14:24:18.915Z,16.00
2023-01-29T14:26:49.530Z,15.50
2023-01-29T14:29:33.830Z,16.90
2023-01-29T14:32:08.132Z,14.80
2023-01-29T14:34:47.875Z,17.30
2023-01-29T14:37:15.811Z,17.30
2023-01-29T14:39:58.407Z,16.20
2023-01-29T14:42:32.998Z,15.30
2023-01-29T14:45:09.249Z,18.00
2023-01-29T14:47:37.107Z,18.10
2023-01-29T14:50:31.771Z,18.10
2023-01-29T14:53:32.119Z,18.90
2023-01-29T14:56:02.978Z,17.30
2023-01-29T14:58:43.110Z,17.60
2023-01-29T15:01:25.854Z,17.90
2023-01-29T15:04:21.516Z,16.20
2023-01-29T15:07:01.657Z,19.20
2023-01-29T15:10:22.015Z,18.90
2023-01-29T15:13:03.251Z,20.10
2023-01-29T15:15:53.076Z,18.20
2023-01-29T15:18:32.166Z,20.00
2023-01-29T15:21:11.805Z,17.10
2023-01-29T15:23:40.887Z,18.80
2023-01-29T15:26:19.355Z,17.80
2023-01-29T15:29:03.572Z,19.10
2023-01-29T15:31:33.152Z,17.20
2023-01-29T15:34:06.857Z,19.30
2023-01-29T15:36:37.165Z,18.40
2023-01-29T15:39:23.891Z,26.80
2023-01-29T15:42:10.687Z,17.90
2023-01-29T15:44:45.108Z,14.30
2023-01-29T15:47:14.554Z,15.20
2023-01-29T15:49:45.190Z,15.60
2023-01-29T15:52:17.902Z,15.70
2023-01-29T15:54:46.654Z,16.40
2023-01-29T15:57:23.428Z,17.70
2023-01-29T15:59:54.073Z,16.60
2023-01-29T16:02:34.516Z,16.20
2023-01-29T16:05:05.179Z,14.90
2023-01-29T16:07:35.105Z,18.90
2023-01-29T16:10:04.416Z,16.50
2023-01-29T16:12:33.690Z,15.00
2023-01-29T16:15:03.890Z,17.90
2023-01-29T16:17:36.862Z,15.70
2023-01-29T16:20:07.086Z,15.40
2023-01-29T16:22:37.312Z,14.90
2023-01-29T16:25:07.849Z,13.90
2023-01-29T16:27:35.784Z,17.10
2023-01-29T16:30:05.664Z,16.10
2023-01-29T16:32:33.804Z,16.90
2023-01-29T16:35:01.915Z,18.10
2023-01-29T16:37:36.444Z,15.40
2023-01-29T16:40:33.085Z,21.60
2023-01-29T16:43:22.745Z,18.50
2023-01-29T16:46:04.922Z,18.10
2023-01-29T16:48:34.838Z,15.50
2023-01-29T16:51:14.137Z,18.70
2023-01-29T16:54:21.611Z,15.70
2023-01-29T16:56:52.901Z,17.60
2023-01-29T16:59:28.562Z,17.30
2023-01-29T17:01:56.840Z,14.70
2023-01-29T17:04:25.009Z,17.00
2023-01-29T17:07:01.674Z,15.20
2023-01-29T17:09:33.455Z,16.50
2023-01-29T17:12:05.612Z,15.90
2023-01-29T17:14:34.490Z,15.90
2023-01-29T17:17:05.660Z,18.20
2023-01-29T17:19:33.606Z,19.10
2023-01-29T17:22:04.795Z,20.50
2023-01-29T17:24:32.656Z,25.60
2023-01-29T17:27:01.692Z,16.30
2023-01-29T17:29:31.310Z,16.40
2023-01-29T17:32:02.445Z,16.60
2023-01-29T17:34:30.410Z,18.70
2023-01-29T17:36:58.291Z,17.40
2023-01-29T17:39:26.280Z,17.40
2023-01-29T17:41:56.162Z,16.50
2023-01-29T17:44:27.727Z,16.20
2023-01-29T17:46:55.785Z,17.70
2023-01-29T17:49:29.633Z,15.50
2023-01-29T17:54:27.992Z,18.70
2023-01-29T17:56:56.540Z,17.70
2023-01-29T17:59:28.582Z,18.40
2023-01-29T18:01:56.691Z,18.30
2023-01-29T18:04:25.002Z,19.10
2023-01-29T18:06:54.416Z,16.50
2023-01-29T18:09:22.466Z,18.30
2023-01-29T18:11:51.459Z,18.60
2023-01-29T18:14:19.695Z,15.70
2023-01-29T18:16:47.697Z,18.70
2023-01-29T18:19:21.040Z,16.80
2023-01-29T18:21:50.490Z,18.70
2023-01-29T18:24:20.432Z,19.70
2023-01-29T18:26:49.653Z,17.10
2023-01-29T18:29:17.890Z,20.10
2023-01-29T18:31:49.250Z,18.00
2023-01-29T18:34:17.318Z,15.90
2023-01-29T18:36:47.685Z,17.50
2023-01-29T18:39:16.524Z,20.20
2023-01-29T18:41:44.706Z,17.40
2023-01-29T18:44:12.720Z,17.60
2023-01-29T18:46:40.622Z,18.00
2023-01-29T18:49:08.710Z,20.90
2023-01-29T18:51:36.653Z,19.00
2023-01-29T18:54:04.821Z,17.50
2023-01-29T18:56:32.704Z,16.80
2023-01-29T18:59:00.648Z,17.20
2023-01-29T19:01:28.816Z,16.90
2023-01-29T19:03:59.128Z,18.90
2023-01-29T19:06:26.992Z,21.30
2023-01-29T19:08:54.893Z,20.40
2023-01-29T19:11:22.813Z,19.50
2023-01-29T19:13:50.967Z,23.60
2023-01-29T19:16:18.872Z,22.30
2023-01-29T19:18:46.722Z,21.30
2023-01-29T19:21:16.283Z,19.70
2023-01-29T19:23:44.934Z,21.70
2023-01-29T19:26:13.683Z,19.10
2023-01-29T19:28:42.057Z,20.70
2023-01-29T19:31:10.160Z,20.90
2023-01-29T19:33:39.197Z,18.60
2023-01-29T19:36:07.745Z,22.40
2023-01-29T19:38:38.582Z,19.80
2023-01-29T19:41:06.693Z,17.80
2023-01-29T19:43:34.645Z,30.80
2023-01-29T19:46:02.756Z,19.40
2023-01-29T19:48:30.676Z,19.60
2023-01-29T19:51:04.351Z,17.50
2023-01-29T19:53:32.368Z,18.60
2023-01-29T19:56:04.972Z,18.90
2023-01-29T19:58:33.406Z,20.90
2023-01-29T20:01:07.340Z,18.80
2023-01-29T20:03:35.314Z,19.90
2023-01-29T20:06:08.512Z,16.90
2023-01-29T20:08:36.787Z,17.20
2023-01-29T20:11:05.705Z,15.90
2023-01-29T20:13:36.687Z,18.20
2023-01-29T20:16:05.698Z,18.40
2023-01-29T20:18:33.738Z,18.40
2023-01-29T20:21:10.299Z,18.80
2023-01-29T20:23:40.087Z,16.50
2023-01-29T20:26:12.384Z,15.70
2023-01-29T20:28:40.714Z,18.80
2023-01-29T20:31:09.825Z,17.20
2023-01-29T20:33:39.560Z,15.90
2023-01-29T20:36:10.076Z,19.60
2023-01-29T20:38:38.336Z,17.40
2023-01-29T20:41:14.205Z,19.10
2023-01-29T20:43:43.170Z,20.40
2023-01-29T20:46:12.073Z,19.40
2023-01-29T20:48:42.077Z,23.20
2023-01-29T20:51:15.377Z,19.40
2023-01-29T20:53:45.524Z,22.20
2023-01-29T20:56:15.758Z,20.30
2023-01-29T20:58:44.410Z,21.90
2023-01-29T21:01:15.547Z,22.60
2023-01-29T21:03:43.802Z,19.00
2023-01-29T21:06:11.897Z,17.80
2023-01-29T21:08:40.668Z,19.10
2023-01-29T21:11:09.779Z,21.20
2023-01-29T21:13:37.952Z,20.40
2023-01-29T21:16:06.215Z,18.50
2023-01-29T21:18:34.092Z,22.60
2023-01-29T21:21:01.955Z,21.00
2023-01-29T21:23:30.011Z,18.60
2023-01-29T21:26:05.142Z,20.10
2023-01-29T21:28:33.874Z,19.80
2023-01-29T21:31:04.015Z,19.00
2023-01-29T21:33:32.240Z,18.90
2023-01-29T21:36:00.759Z,16.90
2023-01-29T21:38:28.722Z,22.50
2023-01-29T21:41:01.597Z,21.00
2023-01-29T21:43:29.930Z,18.10
2023-01-29T21:46:00.225Z,19.60
2023-01-29T21:48:28.239Z,19.30
2023-01-29T21:50:56.191Z,18.60
2023-01-29T21:53:24.224Z,18.60
2023-01-29T21:55:52.098Z,18.60
2023-01-29T21:58:20.709Z,19.30
2023-01-29T22:00:50.677Z,21.50
2023-01-29T22:03:18.731Z,19.20
2023-01-29T22:05:46.652Z,18.20
2023-01-29T22:08:14.946Z,19.50
2023-01-29T22:10:42.961Z,19.10
2023-01-29T22:13:10.974Z,18.40
2023-01-29T22:15:38.797Z,19.30
2023-01-29T22:18:06.661Z,17.60
2023-01-29T22:20:36.694Z,19.10
2023-01-29T22:23:04.799Z,18.60
2023-01-29T22:25:33.436Z,18.70
2023-01-29T22:28:01.383Z,19.90
2023-01-29T22:30:29.430Z,18.60
2023-01-29T22:32:57.282Z,18.90
2023-01-29T22:35:25.376Z,17.80
2023-01-29T22:37:54.327Z,19.60
2023-01-29T22:40:22.268Z,17.90
2023-01-29T22:42:50.109Z,16.90
2023-01-29T22:45:18.063Z,19.10
2023-01-29T22:47:46.001Z,18.30
2023-01-29T22:50:14.398Z,18.70
2023-01-29T22:52:43.322Z,17.40
2023-01-29T22:55:13.561Z,20.10
2023-01-29T22:57:41.483Z,17.70
2023-01-29T23:00:11.114Z,17.70
2023-01-29T23:02:39.062Z,19.90
2023-01-29T23:05:07.923Z,17.90
2023-01-29T23:07:35.895Z,22.60
2023-01-29T23:10:05.781Z,21.30
2023-01-29T23:12:34.077Z,19.70
2023-01-29T23:15:02.095Z,19.60
2023-01-29T23:17:29.933Z,18.10
2023-01-29T23:19:57.832Z,19.90
2023-01-29T23:22:25.829Z,19.70
2023-01-29T23:24:53.819Z,18.10
2023-01-29T23:27:21.658Z,18.40
2023-01-29T23:29:49.526Z,21.60
2023-01-29T23:32:20.013Z,21.30
2023-01-29T23:34:48.190Z,19.70
2023-01-29T23:37:16.135Z,20.30
2023-01-29T23:39:44.032Z,26.70
2023-01-29T23:42:12.015Z,22.50
2023-01-29T23:44:40.411Z,21.40
2023-01-29T23:47:09.419Z,21.00
2023-01-29T23:49:37.507Z,19.70
2023-01-29T23:52:05.455Z,22.30
2023-01-29T23:54:33.333Z,23.40
2023-01-29T23:57:01.353Z,21.70
2023-01-29T23:59:29.332Z,22.90
